Abano — CSY02 — position and weather

sailwx.info

Track history (hours):
 
Tides and Currents Weather Stations Pressure Air Temp Water Temp Dewpoint Dewpoint Depression Visibility Wind Speed Wind Dir Waves Ship Positions

Abano

Last reported at 2017-Nov-23 08:58 UTC. Time now 2017-Nov-23 15:17 UTC.
Position N 38°41' W 009°11'.

Type: Port tender. MMSI: 263673670.

Date/timePositionNaut miles runAvg speedWind from/ knotsBaromVisibWave heightAir tempDewpointWater temp
2017-Nov-23 08:58N 38°41' W 009°11'0 0.2
2017-Nov-23 08:05N 38°41' W 009°11'0 1.1
2017-Nov-23 08:00N 38°41' W 009°11'0 0.0
2017-Nov-22 22:53N 38°41' W 009°11'0 1.0
2017-Nov-22 22:29N 38°41' W 009°11'0 0.1
2017-Nov-22 21:54N 38°41' W 009°11'  
2017-Nov-18 15:58N 38°42' W 009°10'2 3.0
2017-Nov-18 15:24N 38°41' W 009°11'0 0.1
2017-Nov-18 14:53N 38°41' W 009°11'0 0.0
2017-Nov-18 14:26N 38°41' W 009°11'0 0.0
2017-Nov-18 13:55N 38°41' W 009°11'2 0.2
2017-Nov-18 03:38N 38°42' W 009°08'1 8.6
2017-Nov-18 03:29N 38°42' W 009°07'2 2.0
2017-Nov-18 02:17N 38°41' W 009°04'3 7.0
2017-Nov-18 01:54N 38°42' W 009°07'2 0.1
2017-Nov-16 15:52N 38°40' W 009°09'0 1.1
2017-Nov-16 15:25N 38°40' W 009°08'2 0.1
2017-Nov-15 11:07N 38°42' W 009°10'1 9.5
2017-Nov-15 11:00N 38°41' W 009°11'3 1.5
2017-Nov-15 08:47N 38°42' W 009°07'3 8.9
2017-Nov-15 08:27N 38°41' W 009°11'1 0.3
2017-Nov-15 03:26N 38°42' W 009°09'3 5.4
2017-Nov-15 02:55N 38°41' W 009°13'0 0.2
2017-Nov-15 02:29N 38°41' W 009°13'1 1.7
2017-Nov-15 01:58N 38°41' W 009°12'1 0.5
2017-Nov-14 23:05N 38°42' W 009°10'1 9.7
2017-Nov-14 22:59N 38°41' W 009°11'0 0.1
2017-Nov-14 16:55N 38°41' W 009°11'2 0.3
2017-Nov-14 09:35N 38°42' W 009°09'  
Track history (hours):
 
Tides and Currents Weather Stations Pressure Air Temp Water Temp Dewpoint Dewpoint Depression Visibility Wind Speed Wind Dir Waves Ship Positions

Abano

Last reported at 2017-Nov-23 08:58 UTC. Time now 2017-Nov-23 15:17 UTC.
Position N 38°41' W 009°11'.

Type: Port tender. MMSI: 263673670.

Date/timePositionNaut miles runAvg speedWind from/ knotsBaromVisibWave heightAir tempDewpointWater temp
2017-Nov-23 08:58N 38°41' W 009°11'0 0.2
2017-Nov-23 08:05N 38°41' W 009°11'0 1.1
2017-Nov-23 08:00N 38°41' W 009°11'0 0.0
2017-Nov-22 22:53N 38°41' W 009°11'0 1.0
2017-Nov-22 22:29N 38°41' W 009°11'0 0.1
2017-Nov-22 21:54N 38°41' W 009°11'  
2017-Nov-18 15:58N 38°42' W 009°10'2 3.0
2017-Nov-18 15:24N 38°41' W 009°11'0 0.1
2017-Nov-18 14:53N 38°41' W 009°11'0 0.0
2017-Nov-18 14:26N 38°41' W 009°11'0 0.0
2017-Nov-18 13:55N 38°41' W 009°11'2 0.2
2017-Nov-18 03:38N 38°42' W 009°08'1 8.6
2017-Nov-18 03:29N 38°42' W 009°07'2 2.0
2017-Nov-18 02:17N 38°41' W 009°04'3 7.0
2017-Nov-18 01:54N 38°42' W 009°07'2 0.1
2017-Nov-16 15:52N 38°40' W 009°09'0 1.1
2017-Nov-16 15:25N 38°40' W 009°08'2 0.1
2017-Nov-15 11:07N 38°42' W 009°10'1 9.5
2017-Nov-15 11:00N 38°41' W 009°11'3 1.5
2017-Nov-15 08:47N 38°42' W 009°07'3 8.9
2017-Nov-15 08:27N 38°41' W 009°11'1 0.3
2017-Nov-15 03:26N 38°42' W 009°09'3 5.4
2017-Nov-15 02:55N 38°41' W 009°13'0 0.2
2017-Nov-15 02:29N 38°41' W 009°13'1 1.7
2017-Nov-15 01:58N 38°41' W 009°12'1 0.5
2017-Nov-14 23:05N 38°42' W 009°10'1 9.7
2017-Nov-14 22:59N 38°41' W 009°11'0 0.1
2017-Nov-14 16:55N 38°41' W 009°11'2 0.3
2017-Nov-14 09:35N 38°42' W 009°09'  

Dump ship's entire track history